Time;durP1;ratioP1;P1;durP2;ratioP2;P2;SDS_P1;SDS_P2;PMS_P1;PMS_P2;Temp;Humidity;BMP_temperature;BMP_pressure;BME280_temperature;BME280_humidity;BME280_pressure;Samples;Min_cycle;Max_cycle;Signal;HPM_P1;HPM_P2
2023/06/14 00:00:16;;;;;;;;;;;;;;;16.80;43.71;92275.22;2056177;69;20096;-75
2023/06/14 00:02:41;;;;;;;;;;;;;;;16.57;44.52;92279.44;2057359;69;20095;-75
2023/06/14 00:05:07;;;;;;;;;;;;;;;16.36;44.64;92280.91;2057766;69;20046;-76
2023/06/14 00:07:34;;;;;;;;;;;;;;;16.49;44.45;92282.75;2060707;69;20061;-75
2023/06/14 00:09:59;;;;;;;;;;;;;;;16.43;45.32;92287.50;2055643;69;20049;-76
2023/06/14 00:12:25;;;;;;;;;;;;;;;16.37;44.66;92290.88;2056287;69;20160;-78
2023/06/14 00:14:51;;;;;;;;;;;;;;;16.41;44.76;92290.28;2058019;69;20050;-78
2023/06/14 00:17:16;;;;;;;;;;;;;;;16.24;45.04;92291.84;2057743;69;20070;-74
2023/06/14 00:19:42;;;;;;;;;;;;;;;16.48;45.21;92280.56;2060621;69;20082;-74
2023/06/14 00:22:07;;;;;;;;;;;;;;;16.29;44.71;92287.03;2057340;69;20570;-74
2023/06/14 00:24:33;;;;;;;;;;;;;;;16.26;45.15;92283.41;2054673;69;20112;-75
2023/06/14 00:26:58;;;;;;;;;;;;;;;16.33;44.49;92279.38;2060520;69;20072;-73
2023/06/14 00:29:25;;;;;;;;;;;;;;;16.04;44.84;92272.03;2059912;69;20167;-75
2023/06/14 00:31:51;;;;;;;;;;;;;;;16.09;45.24;92284.25;2053756;69;20564;-75
2023/06/14 00:34:17;;;;;;;;;;;;;;;16.09;45.13;92278.59;2059273;69;20053;-76
2023/06/14 00:36:44;;;;;;;;;;;;;;;16.11;45.75;92278.63;2057037;69;20085;-76
2023/06/14 00:39:13;;;;;;;;;;;;;;;16.05;46.16;92281.28;2056584;69;20081;-77
2023/06/14 00:41:39;;;;;;;;;;;;;;;15.95;45.86;92282.38;2057474;69;20109;-75
2023/06/14 00:44:05;;;;;;;;;;;;;;;15.96;46.50;92275.31;2059446;69;20046;-75
2023/06/14 00:46:30;;;;;;;;;;;;;;;15.76;47.00;92271.78;2059421;69;20048;-76
2023/06/14 00:48:56;;;;;;;;;;;;;;;15.74;46.95;92274.53;2057131;69;20722;-75
2023/06/14 00:51:22;;;;;;;;;;;;;;;15.76;47.11;92271.78;2061204;69;20077;-76
2023/06/14 00:53:47;;;;;;;;;;;;;;;15.79;46.74;92270.47;2053901;69;20069;-75
2023/06/14 00:56:14;;;;;;;;;;;;;;;15.71;46.45;92270.19;2055031;69;20062;-75
2023/06/14 00:58:41;;;;;;;;;;;;;;;15.77;46.09;92272.53;2054561;69;20149;-75
2023/06/14 01:01:07;;;;;;;;;;;;;;;15.64;46.13;92269.25;2060194;69;20101;-76
2023/06/14 01:03:33;;;;;;;;;;;;;;;15.64;46.43;92269.25;2060790;69;20054;-76
2023/06/14 01:06:14;;;;;;;;;;;;;;;15.60;46.19;92268.34;2057921;69;20498;-75
2023/06/14 01:08:43;;;;;;;;;;;;;;;15.56;46.53;92274.59;2057524;69;20549;-74
2023/06/14 01:11:21;;;;;;;;;;;;;;;15.65;45.89;92275.66;2057831;69;20142;-76
2023/06/14 01:13:49;;;;;;;;;;;;;;;15.54;46.76;92270.97;2054896;69;20599;-75
2023/06/14 01:16:15;;;;;;;;;;;;;;;15.56;46.67;92273.88;2056323;69;20512;-76
2023/06/14 01:18:47;;;;;;;;;;;;;;;15.38;47.20;92271.09;2060403;69;20053;-76
2023/06/14 01:21:22;;;;;;;;;;;;;;;15.45;47.15;92269.97;2057514;69;20430;-75
2023/06/14 01:23:52;;;;;;;;;;;;;;;15.23;47.03;92267.75;2057812;69;20116;-76
2023/06/14 01:26:18;;;;;;;;;;;;;;;15.33;47.11;92270.22;2060086;69;20054;-76
2023/06/14 01:28:48;;;;;;;;;;;;;;;15.38;46.13;92266.16;2058741;69;20141;-78
2023/06/14 01:31:24;;;;;;;;;;;;;;;15.30;47.10;92262.31;2059506;69;20116;-76
2023/06/14 01:33:52;;;;;;;;;;;;;;;15.11;47.38;92267.31;2060473;69;20473;-77
2023/06/14 01:36:22;;;;;;;;;;;;;;;15.16;47.18;92260.41;2061021;69;20140;-77
2023/06/14 01:38:49;;;;;;;;;;;;;;;15.18;46.69;92268.28;2060430;69;20521;-76
2023/06/14 01:41:16;;;;;;;;;;;;;;;15.02;46.98;92261.97;2060869;69;20103;-74
2023/06/14 01:43:42;;;;;;;;;;;;;;;15.22;46.75;92268.44;2057674;69;20424;-75
2023/06/14 01:46:08;;;;;;;;;;;;;;;15.11;46.71;92261.63;2057970;69;20061;-75
2023/06/14 01:48:35;;;;;;;;;;;;;;;15.18;46.22;92266.16;2056971;69;20088;-74
2023/06/14 01:51:02;;;;;;;;;;;;;;;15.05;46.84;92269.91;2053214;69;20066;-74
2023/06/14 01:53:28;;;;;;;;;;;;;;;14.99;46.85;92261.19;2055967;69;20053;-76
2023/06/14 01:55:54;;;;;;;;;;;;;;;15.01;46.47;92261.25;2057886;69;20058;-76
2023/06/14 01:58:19;;;;;;;;;;;;;;;14.69;47.66;92252.25;2055754;69;20064;-77
2023/06/14 02:00:45;;;;;;;;;;;;;;;14.98;46.71;92254.06;2057637;69;20085;-76
2023/06/14 02:03:11;;;;;;;;;;;;;;;14.88;47.28;92251.56;2054525;69;20485;-76
2023/06/14 02:05:38;;;;;;;;;;;;;;;14.91;47.95;92258.06;2055124;69;20087;-76
2023/06/14 02:08:04;;;;;;;;;;;;;;;14.71;48.22;92258.03;2053376;69;20520;-75
2023/06/14 02:10:32;;;;;;;;;;;;;;;14.78;47.75;92251.19;2059017;69;20065;-76
2023/06/14 02:13:00;;;;;;;;;;;;;;;14.84;48.57;92257.06;2058368;69;20050;-76
2023/06/14 02:15:33;;;;;;;;;;;;;;;14.81;48.55;92261.22;2057870;69;20109;-74
2023/06/14 02:18:00;;;;;;;;;;;;;;;14.75;48.27;92252.47;2054605;69;20091;-74
2023/06/14 02:20:26;;;;;;;;;;;;;;;14.78;48.01;92250.47;2055387;69;20054;-75
2023/06/14 02:22:51;;;;;;;;;;;;;;;14.96;46.49;92254.72;2059005;69;20192;-74
2023/06/14 02:25:16;;;;;;;;;;;;;;;14.83;47.08;92249.25;2055988;69;20135;-74
2023/06/14 02:27:42;;;;;;;;;;;;;;;14.89;47.75;92246.63;2059412;69;20503;-76
2023/06/14 02:30:10;;;;;;;;;;;;;;;14.78;48.31;92250.47;2055160;69;20141;-74
2023/06/14 02:32:36;;;;;;;;;;;;;;;14.77;48.03;92244.06;2054932;69;20525;-75
2023/06/14 02:35:02;;;;;;;;;;;;;;;14.81;47.54;92255.56;2054438;69;20053;-77
2023/06/14 02:37:28;;;;;;;;;;;;;;;14.80;47.87;92253.38;2060459;69;20182;-76
2023/06/14 02:39:53;;;;;;;;;;;;;;;14.61;48.36;92257.59;2059069;69;20604;-77
2023/06/14 02:42:19;;;;;;;;;;;;;;;14.62;48.90;92251.31;2058285;69;20046;-76
2023/06/14 02:44:46;;;;;;;;;;;;;;;14.42;48.93;92254.03;2057475;69;20103;-77
2023/06/14 02:47:11;;;;;;;;;;;;;;;14.56;49.18;92248.22;2055545;69;20058;-75
2023/06/14 02:49:37;;;;;;;;;;;;;;;14.53;49.64;92254.47;2057807;69;20049;-75
2023/06/14 02:52:03;;;;;;;;;;;;;;;14.43;49.61;92252.69;2059431;69;20093;-76
2023/06/14 02:54:28;;;;;;;;;;;;;;;14.46;49.94;92251.38;2057919;69;20054;-76
2023/06/14 02:56:54;;;;;;;;;;;;;;;14.49;49.49;92257.88;2055969;69;20101;-76
2023/06/14 02:59:21;;;;;;;;;;;;;;;14.44;49.54;92251.28;2056858;69;20152;-75
2023/06/14 03:01:47;;;;;;;;;;;;;;;14.46;49.83;92253.47;2056918;69;20575;-76
2023/06/14 03:04:14;;;;;;;;;;;;;;;14.36;49.97;92253.81;2055831;69;20514;-75
2023/06/14 03:06:44;;;;;;;;;;;;;;;14.39;50.13;92249.69;2057458;69;20060;-76
2023/06/14 03:09:10;;;;;;;;;;;;;;;14.22;50.70;92253.97;2053333;69;20064;-77
2023/06/14 03:11:38;;;;;;;;;;;;;;;14.26;49.94;92261.16;2056525;69;20076;-75
2023/06/14 03:14:04;;;;;;;;;;;;;;;14.20;50.48;92256.72;2054805;69;20107;-75
2023/06/14 03:16:31;;;;;;;;;;;;;;;14.29;50.55;92254.91;2058964;69;20053;-76
2023/06/14 03:18:57;;;;;;;;;;;;;;;13.87;51.59;92257.47;2055745;69;20149;-76
2023/06/14 03:21:29;;;;;;;;;;;;;;;14.04;51.03;92261.72;2054533;69;20053;-75
2023/06/14 03:23:57;;;;;;;;;;;;;;;14.23;51.57;92263.19;2058430;69;20070;-75
2023/06/14 03:26:24;;;;;;;;;;;;;;;14.19;51.29;92266.56;2052933;69;20046;-76
2023/06/14 03:28:53;;;;;;;;;;;;;;;14.24;51.57;92261.81;2053693;69;20061;-76
2023/06/14 03:31:21;;;;;;;;;;;;;;;14.36;50.63;92267.97;2060554;69;20548;-76
2023/06/14 03:33:47;;;;;;;;;;;;;;;14.36;51.62;92262.28;2057192;69;20480;-76
2023/06/14 03:36:12;;;;;;;;;;;;;;;14.39;51.29;92269.50;2059626;69;20057;-76
2023/06/14 03:38:39;;;;;;;;;;;;;;;14.26;51.92;92266.84;2058629;69;20050;-76
2023/06/14 03:41:05;;;;;;;;;;;;;;;14.45;50.67;92269.72;2061374;69;20529;-76
2023/06/14 03:43:31;;;;;;;;;;;;;;;14.45;50.72;92263.34;2058172;69;20054;-76
2023/06/14 03:45:57;;;;;;;;;;;;;;;14.42;50.39;92273.84;2057156;69;20062;-74
2023/06/14 03:48:27;;;;;;;;;;;;;;;14.46;50.85;92276.84;2056761;69;20088;-76
2023/06/14 03:50:55;;;;;;;;;;;;;;;14.29;51.68;92280.41;2060957;69;20128;-76
2023/06/14 03:53:23;;;;;;;;;;;;;;;14.13;52.34;92276.94;2057340;69;20080;-76
2023/06/14 03:55:53;;;;;;;;;;;;;;;14.32;51.46;92281.22;2060212;69;20138;-76
2023/06/14 03:58:25;;;;;;;;;;;;;;;14.39;52.00;92286.50;2056714;69;20050;-75
2023/06/14 04:00:51;;;;;;;;;;;;;;;14.16;51.89;92296.19;2055219;69;20050;-75
2023/06/14 04:03:16;;;;;;;;;;;;;;;14.05;51.59;92282.25;2056978;69;20062;-74
2023/06/14 04:05:42;;;;;;;;;;;;;;;13.92;52.71;92290.22;2053889;69;20034;-74
2023/06/14 04:08:14;;;;;;;;;;;;;;;14.16;52.39;92298.28;2057309;69;20473;-74
2023/06/14 04:10:40;;;;;;;;;;;;;;;14.16;53.52;92299.00;2061863;69;20111;-74
2023/06/14 04:13:07;;;;;;;;;;;;;;;14.40;51.92;92296.44;2055674;69;20409;-74
2023/06/14 04:15:33;;;;;;;;;;;;;;;14.37;52.67;92303.38;2054943;69;20451;-75
2023/06/14 04:18:00;;;;;;;;;;;;;;;14.31;52.26;92302.44;2057566;69;20074;-75
2023/06/14 04:20:26;;;;;;;;;;;;;;;14.29;52.89;92314.38;2055813;69;20490;-74
2023/06/14 04:22:52;;;;;;;;;;;;;;;13.81;53.77;92318.75;2058187;69;20457;-75
2023/06/14 04:25:18;;;;;;;;;;;;;;;14.16;53.30;92313.16;2060966;69;20050;-75
2023/06/14 04:27:44;;;;;;;;;;;;;;;14.18;53.67;92316.06;2055054;69;20057;-74
2023/06/14 04:30:10;;;;;;;;;;;;;;;14.22;53.12;92316.25;2056973;69;20528;-75
2023/06/14 04:32:42;;;;;;;;;;;;;;;14.26;52.98;92315.69;2055196;69;20054;-75
2023/06/14 04:35:10;;;;;;;;;;;;;;;14.19;53.22;92320.34;2055459;69;20505;-75
2023/06/14 04:37:41;;;;;;;;;;;;;;;14.21;53.01;92320.44;2055825;69;20054;-73
2023/06/14 04:40:08;;;;;;;;;;;;;;;14.23;52.46;92331.84;2060830;69;20474;-75
2023/06/14 04:42:37;;;;;;;;;;;;;;;14.22;51.59;92324.72;2060428;69;20509;-74
2023/06/14 04:45:06;;;;;;;;;;;;;;;13.66;52.56;92326.63;2057672;69;20062;-73
2023/06/14 04:47:35;;;;;;;;;;;;;;;14.20;51.29;92327.50;2060547;69;20056;-74
2023/06/14 04:50:03;;;;;;;;;;;;;;;14.32;51.56;92329.34;2056440;69;20060;-74
2023/06/14 04:52:37;;;;;;;;;;;;;;;14.39;52.00;92326.13;2057719;69;20395;-75
2023/06/14 04:55:10;;;;;;;;;;;;;;;14.45;50.73;92328.47;2057458;69;20053;-75
2023/06/14 04:57:38;;;;;;;;;;;;;;;14.43;51.70;92326.31;2060924;69;20052;-75
2023/06/14 05:00:05;;;;;;;;;;;;;;;14.53;51.46;92331.69;2053738;69;20112;-75
2023/06/14 05:02:32;;;;;;;;;;;;;;;14.04;51.35;92331.75;2056730;69;20050;-75
2023/06/14 05:04:59;;;;;;;;;;;;;;;14.37;51.17;92336.63;2058022;69;20511;-74
2023/06/14 05:07:28;;;;;;;;;;;;;;;14.61;49.81;92334.09;2061043;69;20081;-75
2023/06/14 05:09:56;;;;;;;;;;;;;;;14.67;50.38;92335.06;2056959;69;20067;-74
2023/06/14 05:12:23;;;;;;;;;;;;;;;14.30;50.04;92337.78;2060584;69;20168;-75
2023/06/14 05:14:48;;;;;;;;;;;;;;;14.08;50.15;92335.47;2057373;69;20054;-75
2023/06/14 05:17:23;;;;;;;;;;;;;;;14.21;48.78;92333.88;2055971;69;20065;-75
2023/06/14 05:19:55;;;;;;;;;;;;;;;14.52;50.07;92346.47;2060905;69;20053;-74
2023/06/14 05:22:22;;;;;;;;;;;;;;;14.59;51.08;92343.25;2060653;69;20052;-74
2023/06/14 05:24:48;;;;;;;;;;;;;;;14.57;52.94;92348.84;2059915;69;20157;-75
2023/06/14 05:27:14;;;;;;;;;;;;;;;14.63;53.22;92349.06;2058458;69;20053;-75
2023/06/14 05:29:40;;;;;;;;;;;;;;;14.75;52.05;92354.47;2060543;69;20104;-75
2023/06/14 05:32:05;;;;;;;;;;;;;;;14.79;51.65;92356.75;2057661;69;20554;-76
2023/06/14 05:34:31;;;;;;;;;;;;;;;15.01;50.70;92351.97;2062582;69;20064;-75
2023/06/14 05:36:56;;;;;;;;;;;;;;;14.74;49.61;92362.25;2062335;69;20151;-74
2023/06/14 05:39:24;;;;;;;;;;;;;;;14.85;49.60;92360.56;2062457;69;20077;-75
2023/06/14 05:41:49;;;;;;;;;;;;;;;14.99;51.55;92366.78;2061721;69;20137;-75
2023/06/14 05:44:15;;;;;;;;;;;;;;;15.13;51.15;92363.06;2057896;69;20181;-74
2023/06/14 05:46:41;;;;;;;;;;;;;;;15.00;52.17;92362.56;2057271;69;20057;-76
2023/06/14 05:49:28;;;;;;;;;;;;;;;14.97;52.13;92366.69;2059796;69;20085;-76
2023/06/14 05:51:54;;;;;;;;;;;;;;;14.99;52.59;92366.78;2060553;69;20112;-77
2023/06/14 05:54:19;;;;;;;;;;;;;;;15.08;51.97;92364.28;2062568;69;20084;-73
2023/06/14 05:56:45;;;;;;;;;;;;;;;15.18;52.27;92361.84;2057704;69;20084;-74
2023/06/14 05:59:10;;;;;;;;;;;;;;;15.23;52.12;92358.50;2062417;69;20078;-75
2023/06/14 06:01:36;;;;;;;;;;;;;;;15.29;53.50;92352.31;2061189;69;20054;-74
2023/06/14 06:04:02;;;;;;;;;;;;;;;15.50;52.47;92362.34;2058916;69;20135;-75
2023/06/14 06:06:28;;;;;;;;;;;;;;;15.63;51.63;92364.25;2054553;69;20050;-75
2023/06/14 06:08:54;;;;;;;;;;;;;;;15.64;51.80;92362.16;2058942;69;20401;-75
2023/06/14 06:11:20;;;;;;;;;;;;;;;15.64;51.56;92365.00;2062406;69;20083;-75
2023/06/14 06:13:48;;;;;;;;;;;;;;;15.76;51.44;92359.75;2059048;69;20049;-77
2023/06/14 06:16:15;;;;;;;;;;;;;;;15.79;50.96;92363.38;2060686;69;20112;-75
2023/06/14 06:18:41;;;;;;;;;;;;;;;15.89;50.48;92355.97;2059960;69;20412;-75
2023/06/14 06:21:06;;;;;;;;;;;;;;;15.85;50.53;92361.50;2059431;69;20085;-77
2023/06/14 06:23:36;;;;;;;;;;;;;;;15.90;50.68;92354.59;2059058;69;20104;-77
2023/06/14 06:26:02;;;;;;;;;;;;;;;15.98;51.37;92363.38;2059264;69;20066;-78
2023/06/14 06:28:27;;;;;;;;;;;;;;;16.25;50.29;92361.47;2059545;69;20137;-76
2023/06/14 06:30:53;;;;;;;;;;;;;;;16.14;50.47;92354.72;2061554;69;20485;-77
2023/06/14 06:33:18;;;;;;;;;;;;;;;16.21;49.81;92364.16;2060661;69;20076;-75
2023/06/14 06:35:44;;;;;;;;;;;;;;;16.23;50.16;92369.94;2061466;69;20054;-75
2023/06/14 06:38:09;;;;;;;;;;;;;;;16.45;51.23;92365.00;2061176;69;20145;-76
2023/06/14 06:40:35;;;;;;;;;;;;;;;16.63;50.89;92364.16;2061261;69;20109;-77
2023/06/14 06:43:02;;;;;;;;;;;;;;;16.58;50.63;92366.13;2059558;69;20062;-77
2023/06/14 06:45:28;;;;;;;;;;;;;;;16.76;50.15;92366.75;2058158;69;20061;-77
2023/06/14 06:47:55;;;;;;;;;;;;;;;16.98;50.18;92357.50;2061916;69;20053;-76
2023/06/14 06:50:23;;;;;;;;;;;;;;;17.05;49.37;92358.44;2058158;69;20128;-76
2023/06/14 06:52:54;;;;;;;;;;;;;;;17.24;48.67;92364.00;2056387;69;20108;-77
2023/06/14 06:55:20;;;;;;;;;;;;;;;17.28;49.59;92363.41;2060300;69;20148;-76
2023/06/14 06:57:53;;;;;;;;;;;;;;;17.43;47.19;92356.75;2061323;69;20065;-75
2023/06/14 07:00:19;;;;;;;;;;;;;;;17.52;46.85;92352.03;2062214;69;20130;-75
2023/06/14 07:02:45;;;;;;;;;;;;;;;17.53;46.89;92351.34;2059061;69;20085;-76
2023/06/14 07:05:10;;;;;;;;;;;;;;;17.66;46.32;92354.56;2061164;69;20545;-75
2023/06/14 07:07:36;;;;;;;;;;;;;;;17.75;46.20;92354.16;2061146;69;20500;-74
2023/06/14 07:10:04;;;;;;;;;;;;;;;17.61;44.72;92353.72;2061937;69;20173;-75
2023/06/14 07:12:30;;;;;;;;;;;;;;;17.78;45.93;92344.28;2061826;69;20057;-76
2023/06/14 07:14:57;;;;;;;;;;;;;;;17.73;45.91;92348.44;2058834;69;20070;-76
2023/06/14 07:17:25;;;;;;;;;;;;;;;17.41;47.63;92359.56;2054255;69;20057;-76
2023/06/14 07:19:50;;;;;;;;;;;;;;;17.62;46.94;92358.03;2056231;69;20038;-76
2023/06/14 07:22:18;;;;;;;;;;;;;;;17.41;43.25;92348.16;2057512;69;20421;-77
2023/06/14 07:24:49;;;;;;;;;;;;;;;17.36;42.71;92340.88;2061081;69;20487;-77
2023/06/14 07:27:19;;;;;;;;;;;;;;;17.85;43.65;92350.88;2061161;69;20041;-76
2023/06/14 07:29:44;;;;;;;;;;;;;;;17.58;42.88;92342.94;2062107;69;20151;-77
2023/06/14 07:32:11;;;;;;;;;;;;;;;17.82;42.83;92337.97;2060994;69;20060;-77
2023/06/14 07:34:36;;;;;;;;;;;;;;;17.42;43.52;92341.09;2059226;69;20050;-78
2023/06/14 07:37:02;;;;;;;;;;;;;;;17.74;43.92;92344.19;2059330;69;20556;-77
2023/06/14 07:39:27;;;;;;;;;;;;;;;18.12;43.62;92351.63;2057551;69;20057;-76
2023/06/14 07:41:53;;;;;;;;;;;;;;;17.91;42.33;92344.63;2061109;69;20064;-76
2023/06/14 07:44:18;;;;;;;;;;;;;;;18.05;43.11;92339.31;2061476;69;20135;-75
2023/06/14 07:46:43;;;;;;;;;;;;;;;18.31;42.60;92336.47;2062062;69;20046;-75
2023/06/14 07:49:10;;;;;;;;;;;;;;;17.75;40.62;92333.50;2061597;69;20058;-75
2023/06/14 07:51:36;;;;;;;;;;;;;;;17.93;41.23;92336.16;2058901;69;20049;-73
2023/06/14 07:54:02;;;;;;;;;;;;;;;17.74;41.35;92332.06;2061835;69;20484;-74
2023/06/14 07:56:27;;;;;;;;;;;;;;;18.08;41.45;92328.72;2058551;69;20482;-75
2023/06/14 07:58:52;;;;;;;;;;;;;;;18.28;40.19;92321.44;2058861;69;20228;-76
2023/06/14 08:01:19;;;;;;;;;;;;;;;18.66;39.78;92317.41;2059971;69;20065;-76
2023/06/14 08:03:45;;;;;;;;;;;;;;;18.77;40.98;92322.69;2061058;69;20065;-77
2023/06/14 08:06:11;;;;;;;;;;;;;;;17.99;42.16;92322.06;2060797;69;20046;-77
2023/06/14 08:08:36;;;;;;;;;;;;;;;18.71;41.44;92314.00;2058153;69;20144;-76
2023/06/14 08:11:02;;;;;;;;;;;;;;;19.16;40.74;92315.06;2060252;69;20076;-76
2023/06/14 08:13:27;;;;;;;;;;;;;;;19.40;40.32;92317.00;2060029;69;20045;-76
2023/06/14 08:15:52;;;;;;;;;;;;;;;19.54;39.05;92314.47;2062079;69;20105;-76
2023/06/14 08:18:18;;;;;;;;;;;;;;;19.78;39.24;92311.41;2060081;69;20046;-76
2023/06/14 08:20:44;;;;;;;;;;;;;;;20.23;39.10;92310.16;2062266;69;20057;-76
2023/06/14 08:23:11;;;;;;;;;;;;;;;20.46;38.42;92316.28;2059952;69;20046;-77
2023/06/14 08:25:36;;;;;;;;;;;;;;;20.81;37.65;92315.50;2059838;69;20519;-76
2023/06/14 08:28:02;;;;;;;;;;;;;;;21.34;36.20;92301.31;2061441;69;20046;-78
2023/06/14 08:30:27;;;;;;;;;;;;;;;21.82;37.07;92309.84;2059480;69;20565;-76
2023/06/14 08:32:55;;;;;;;;;;;;;;;22.13;35.39;92309.53;2061062;69;20492;-78
2023/06/14 08:35:20;;;;;;;;;;;;;;;22.07;34.09;92308.00;2059305;69;20038;-78
2023/06/14 08:37:46;;;;;;;;;;;;;;;21.82;33.30;92306.28;2060855;69;20058;-78
2023/06/14 08:40:17;;;;;;;;;;;;;;;22.75;34.19;92308.75;2061806;69;20042;-78
2023/06/14 08:42:43;;;;;;;;;;;;;;;23.33;32.93;92307.81;2060080;69;20592;-77
2023/06/14 08:45:08;;;;;;;;;;;;;;;23.55;32.74;92310.13;2060684;69;20572;-77
2023/06/14 08:47:36;;;;;;;;;;;;;;;23.62;32.71;92310.88;2058709;69;20054;-77
2023/06/14 08:50:03;;;;;;;;;;;;;;;24.16;31.61;92310.47;2061444;69;20302;-77
2023/06/14 08:52:33;;;;;;;;;;;;;;;23.82;30.25;92311.75;2060149;69;20118;-77
2023/06/14 08:55:00;;;;;;;;;;;;;;;23.83;30.90;92306.72;2061942;69;20085;-77
2023/06/14 08:57:30;;;;;;;;;;;;;;;24.79;29.27;92299.16;2060899;69;20054;-77
2023/06/14 08:59:56;;;;;;;;;;;;;;;25.45;30.02;92293.44;2060717;69;20164;-80
2023/06/14 09:02:22;;;;;;;;;;;;;;;25.10;28.01;92302.06;2061473;69;20049;-78
2023/06/14 09:04:49;;;;;;;;;;;;;;;24.03;28.67;92300.34;2051741;69;20053;-79
2023/06/14 09:07:14;;;;;;;;;;;;;;;24.21;29.31;92291.06;2058910;69;20058;-79
2023/06/14 09:09:41;;;;;;;;;;;;;;;25.27;29.36;92291.28;2062577;69;20014;-79
2023/06/14 09:12:11;;;;;;;;;;;;;;;25.28;28.60;92286.94;2061099;69;20108;-79
2023/06/14 09:14:39;;;;;;;;;;;;;;;25.65;28.47;92284.03;2055368;69;20133;-78
2023/06/14 09:17:05;;;;;;;;;;;;;;;25.96;28.21;92288.28;2060684;69;20081;-78
2023/06/14 09:19:31;;;;;;;;;;;;;;;26.06;27.37;92282.50;2061142;69;20089;-77
2023/06/14 09:21:57;;;;;;;;;;;;;;;25.93;27.27;92289.75;2061991;69;20456;-77
2023/06/14 09:24:26;;;;;;;;;;;;;;;26.21;26.43;92282.47;2061601;69;20545;-77
2023/06/14 09:26:51;;;;;;;;;;;;;;;26.59;26.10;92275.78;2061393;69;20499;-76
2023/06/14 09:29:20;;;;;;;;;;;;;;;27.17;26.12;92276.13;2052820;69;20058;-76
2023/06/14 09:31:46;;;;;;;;;;;;;;;27.52;25.39;92273.66;2060953;69;20117;-77
2023/06/14 09:34:12;;;;;;;;;;;;;;;27.22;27.34;92274.66;2061638;69;20091;-79
2023/06/14 09:36:39;;;;;;;;;;;;;;;27.49;26.30;92269.34;2056391;69;20408;-78
2023/06/14 09:39:06;;;;;;;;;;;;;;;28.31;25.03;92269.22;2061141;69;20049;-78
2023/06/14 09:41:42;;;;;;;;;;;;;;;28.14;25.58;92270.91;2061231;69;20049;-79
2023/06/14 09:44:08;;;;;;;;;;;;;;;27.78;24.55;92269.84;2060876;69;20056;-78
2023/06/14 09:46:34;;;;;;;;;;;;;;;28.02;24.81;92269.56;2062200;69;20101;-78
2023/06/14 09:49:02;;;;;;;;;;;;;;;28.21;24.94;92261.38;2060633;69;20515;-79
2023/06/14 09:51:27;;;;;;;;;;;;;;;29.53;23.54;92258.06;2060619;69;20128;-79
2023/06/14 09:53:55;;;;;;;;;;;;;;;29.35;25.26;92259.81;2059962;69;20062;-78
2023/06/14 09:56:32;;;;;;;;;;;;;;;30.04;22.89;92257.16;2059944;69;20058;-78
2023/06/14 09:58:58;;;;;;;;;;;;;;;27.82;23.33;92255.34;2061426;69;20090;-79
2023/06/14 10:01:27;;;;;;;;;;;;;;;29.38;23.99;92252.53;2059518;69;20144;-78
2023/06/14 10:04:00;;;;;;;;;;;;;;;28.73;22.61;92259.31;2058202;69;20101;-77
2023/06/14 10:06:26;;;;;;;;;;;;;;;29.54;22.83;92251.50;2060472;69;20093;-77
2023/06/14 10:08:56;;;;;;;;;;;;;;;29.47;22.41;92258.19;2059956;69;20052;-77
2023/06/14 10:11:21;;;;;;;;;;;;;;;28.35;22.65;92255.44;2057334;69;20062;-76
2023/06/14 10:13:47;;;;;;;;;;;;;;;28.83;22.33;92249.75;2059731;69;20069;-76
2023/06/14 10:16:20;;;;;;;;;;;;;;;29.69;21.41;92252.03;2061944;69;20129;-77
2023/06/14 10:19:06;;;;;;;;;;;;;;;30.72;21.84;92250.75;2061610;69;20077;-78
2023/06/14 10:21:38;;;;;;;;;;;;;;;30.42;21.94;92243.38;2059143;69;20061;-77
2023/06/14 10:24:06;;;;;;;;;;;;;;;30.53;20.62;92244.59;2060731;69;20088;-79
2023/06/14 10:26:33;;;;;;;;;;;;;;;32.07;20.77;92254.78;2060893;69;20092;-77
2023/06/14 10:29:09;;;;;;;;;;;;;;;30.66;21.65;92242.88;2060418;69;20054;-78
2023/06/14 10:31:44;;;;;;;;;;;;;;;31.62;20.91;92235.56;2060730;69;20062;-78
2023/06/14 10:34:10;;;;;;;;;;;;;;;33.75;18.12;92238.81;2055448;69;20054;-78
2023/06/14 10:36:36;;;;;;;;;;;;;;;33.77;18.36;92238.03;2057652;69;20104;-79
2023/06/14 10:39:05;;;;;;;;;;;;;;;35.37;17.36;92225.59;2057689;69;20062;-80
2023/06/14 10:41:33;;;;;;;;;;;;;;;35.10;15.68;92228.88;2058949;69;20058;-78
2023/06/14 10:44:30;;;;;;;;;;;;;;;38.51;14.29;92236.91;2058723;69;20148;-80
2023/06/14 10:46:58;;;;;;;;;;;;;;;38.78;13.94;92226.72;2058522;69;20096;-80
2023/06/14 10:49:42;;;;;;;;;;;;;;;37.99;14.91;92223.41;2060393;69;20486;-79
2023/06/14 10:52:16;;;;;;;;;;;;;;;40.45;11.88;92234.97;2061688;69;20443;-78
2023/06/14 10:55:01;;;;;;;;;;;;;;;37.64;13.36;92230.28;2061753;69;20046;-77
2023/06/14 10:57:26;;;;;;;;;;;;;;;41.44;11.96;92232.63;2058653;69;20169;-77
2023/06/14 10:59:52;;;;;;;;;;;;;;;41.98;10.63;92219.50;2058177;69;20088;-77
2023/06/14 11:02:24;;;;;;;;;;;;;;;42.67;11.51;92228.94;2055032;69;20474;-77
2023/06/14 11:04:51;;;;;;;;;;;;;;;42.85;10.89;92224.03;2059801;69;20512;-78
2023/06/14 11:07:37;;;;;;;;;;;;;;;42.73;11.23;92222.59;2060661;69;20082;-77
2023/06/14 11:10:21;;;;;;;;;;;;;;;41.43;11.27;92219.41;2060052;69;20200;-79
2023/06/14 11:12:47;;;;;;;;;;;;;;;44.23;9.94;92227.47;2055805;69;20127;-78
2023/06/14 11:15:13;;;;;;;;;;;;;;;43.94;10.32;92226.59;2062832;69;20134;-79
2023/06/14 11:17:38;;;;;;;;;;;;;;;43.72;10.13;92223.03;2057981;69;20119;-80
2023/06/14 11:20:10;;;;;;;;;;;;;;;46.05;9.64;92219.88;2058354;69;20053;-79
2023/06/14 11:22:41;;;;;;;;;;;;;;;46.84;8.59;92215.53;2062015;69;20077;-76
2023/06/14 11:25:08;;;;;;;;;;;;;;;44.75;8.97;92210.88;2058623;69;20089;-77
2023/06/14 11:27:33;;;;;;;;;;;;;;;45.65;9.17;92206.78;2061661;69;20085;-79
2023/06/14 11:29:59;;;;;;;;;;;;;;;44.81;9.22;92204.47;2059341;69;20086;-79
2023/06/14 11:32:25;;;;;;;;;;;;;;;48.23;8.45;92209.28;2058851;69;20103;-78
2023/06/14 11:34:51;;;;;;;;;;;;;;;43.46;9.11;92192.34;2060816;69;20049;-80
2023/06/14 11:37:16;;;;;;;;;;;;;;;44.99;8.37;92183.81;2060063;69;20101;-79
2023/06/14 11:39:45;;;;;;;;;;;;;;;45.47;8.33;92185.19;2061824;69;20040;-80
2023/06/14 11:42:15;;;;;;;;;;;;;;;43.86;9.94;92186.44;2060266;69;20705;-79
2023/06/14 11:44:41;;;;;;;;;;;;;;;48.86;7.69;92197.50;2061423;69;20141;-80
2023/06/14 11:47:06;;;;;;;;;;;;;;;48.13;7.19;92186.38;2060022;69;20621;-80
2023/06/14 11:49:35;;;;;;;;;;;;;;;45.16;8.91;92172.06;2060786;69;20562;-81
2023/06/14 11:52:00;;;;;;;;;;;;;;;46.18;8.43;92175.00;2059396;69;20042;-78
2023/06/14 11:54:26;;;;;;;;;;;;;;;47.63;8.61;92181.78;2056354;69;20076;-78
2023/06/14 11:56:51;;;;;;;;;;;;;;;50.98;7.97;92176.00;2059271;69;20017;-79
2023/06/14 11:59:20;;;;;;;;;;;;;;;47.40;8.08;92173.44;2058730;69;20065;-79
2023/06/14 12:01:45;;;;;;;;;;;;;;;44.94;8.23;92162.63;2058837;69;20120;-80
2023/06/14 12:04:10;;;;;;;;;;;;;;;43.64;9.57;92149.53;2057428;69;20089;-79
2023/06/14 12:06:39;;;;;;;;;;;;;;;42.33;10.04;92149.88;2062060;69;20484;-79
2023/06/14 12:09:12;;;;;;;;;;;;;;;35.91;12.85;92136.28;2055669;69;20066;-80
2023/06/14 12:11:38;;;;;;;;;;;;;;;37.41;12.92;92130.16;2061232;69;20421;-79
2023/06/14 12:14:08;;;;;;;;;;;;;;;35.11;14.72;92130.84;2059607;69;20061;-80
2023/06/14 12:16:35;;;;;;;;;;;;;;;35.07;14.86;92139.06;2060757;69;20050;-81
2023/06/14 12:19:08;;;;;;;;;;;;;;;33.29;15.25;92128.00;2061110;69;20054;-79
2023/06/14 12:21:35;;;;;;;;;;;;;;;33.98;16.21;92112.53;2061739;69;20050;-80
2023/06/14 12:24:03;;;;;;;;;;;;;;;33.14;16.07;92104.44;2059719;69;20093;-81
2023/06/14 12:26:28;;;;;;;;;;;;;;;33.25;16.23;92107.00;2061898;69;20066;-80
2023/06/14 12:28:54;;;;;;;;;;;;;;;31.51;17.55;92115.13;2060302;69;20041;-79
2023/06/14 12:31:19;;;;;;;;;;;;;;;32.24;17.27;92105.81;2061030;69;20053;-78
2023/06/14 12:33:48;;;;;;;;;;;;;;;31.43;16.86;92103.00;2059448;69;20073;-78
2023/06/14 12:36:15;;;;;;;;;;;;;;;32.12;17.91;92101.09;2058823;69;20109;-78
2023/06/14 12:38:41;;;;;;;;;;;;;;;32.43;17.81;92109.63;2060466;69;20060;-78
2023/06/14 12:41:07;;;;;;;;;;;;;;;32.23;17.69;92107.31;2060455;69;20069;-80
2023/06/14 12:43:33;;;;;;;;;;;;;;;32.08;16.86;92098.28;2061225;69;20127;-78
2023/06/14 12:45:58;;;;;;;;;;;;;;;31.75;15.97;92096.28;2056531;69;20148;-79
2023/06/14 12:48:24;;;;;;;;;;;;;;;32.27;18.49;92098.44;2057471;69;20065;-77